createdAt,value
2018-03-21T00:00:04.269Z,-2.86
2018-03-21T00:02:32.522Z,-3.02
2018-03-21T00:05:00.782Z,-2.90
2018-03-21T00:07:29.034Z,-2.99
2018-03-21T00:09:57.291Z,-2.87
2018-03-21T00:12:25.549Z,-2.87
2018-03-21T00:14:53.802Z,-3.14
2018-03-21T00:17:22.059Z,-3.20
2018-03-21T00:19:50.323Z,-3.12
2018-03-21T00:22:19.339Z,-3.45
2018-03-21T00:24:47.602Z,-3.33
2018-03-21T00:27:16.611Z,-3.20
2018-03-21T00:29:44.875Z,-3.08
2018-03-21T00:32:15.405Z,-2.99
2018-03-21T00:34:43.656Z,-2.97
2018-03-21T00:37:11.907Z,-2.91
2018-03-21T00:39:40.168Z,-2.72
2018-03-21T00:42:08.412Z,-2.89
2018-03-21T00:44:36.673Z,-2.89
2018-03-21T00:47:05.686Z,-2.91
2018-03-21T00:49:33.939Z,-2.99
2018-03-21T00:52:02.966Z,-3.18
2018-03-21T00:54:31.224Z,-3.28
2018-03-21T00:56:59.483Z,-3.58
2018-03-21T00:59:28.518Z,-3.28
2018-03-21T01:01:56.770Z,-3.46
2018-03-21T01:04:25.026Z,-3.71
2018-03-21T01:06:54.047Z,-3.50
2018-03-21T01:09:22.327Z,-3.40
2018-03-21T01:11:50.586Z,-3.52
2018-03-21T01:14:18.838Z,-3.49
2018-03-21T01:16:47.106Z,-3.61
2018-03-21T01:19:15.353Z,-3.60
2018-03-21T01:21:43.607Z,-3.54
2018-03-21T01:24:11.871Z,-3.69
2018-03-21T01:26:40.137Z,-3.52
2018-03-21T01:29:09.151Z,-3.54
2018-03-21T01:31:37.410Z,-3.75
2018-03-21T01:34:05.691Z,-3.95
2018-03-21T01:36:33.936Z,-4.00
2018-03-21T01:39:02.187Z,-4.16
2018-03-21T01:41:30.442Z,-4.20
2018-03-21T01:43:58.704Z,-4.16
2018-03-21T01:46:26.962Z,-3.98
2018-03-21T01:48:55.211Z,-3.94
2018-03-21T01:51:23.471Z,-3.76
2018-03-21T01:53:51.732Z,-3.60
2018-03-21T01:56:19.978Z,-3.89
2018-03-21T01:58:48.234Z,-4.20
2018-03-21T02:01:17.270Z,-4.27
2018-03-21T02:03:45.527Z,-4.35
2018-03-21T02:06:13.796Z,-4.34
2018-03-21T02:08:42.044Z,-4.31
2018-03-21T02:11:11.055Z,-4.34
2018-03-21T02:13:39.314Z,-4.50
2018-03-21T02:16:08.332Z,-4.41
2018-03-21T02:18:36.580Z,-4.32
2018-03-21T02:21:05.598Z,-4.35
2018-03-21T02:23:33.865Z,-4.35
2018-03-21T02:26:02.870Z,-4.23
2018-03-21T02:28:31.135Z,-4.02
2018-03-21T02:30:59.390Z,-3.92
2018-03-21T02:33:27.642Z,-3.90
2018-03-21T02:35:55.901Z,-3.88
2018-03-21T02:38:24.156Z,-3.98
2018-03-21T02:40:52.408Z,-4.03
2018-03-21T02:43:21.432Z,-4.19
2018-03-21T02:45:49.676Z,-4.26
2018-03-21T02:48:18.707Z,-4.17
2018-03-21T02:50:46.957Z,-4.32
2018-03-21T02:53:15.203Z,-4.19
2018-03-21T02:55:44.221Z,-4.33
2018-03-21T02:58:12.472Z,-4.39
2018-03-21T03:00:41.487Z,-4.29
2018-03-21T03:03:09.756Z,-4.16
2018-03-21T03:05:38.782Z,-4.12
2018-03-21T03:08:07.034Z,-4.09
2018-03-21T03:10:35.287Z,-4.02
2018-03-21T03:13:04.310Z,-4.01
2018-03-21T03:15:32.555Z,-4.09
2018-03-21T03:18:01.579Z,-4.13
2018-03-21T03:20:29.828Z,-4.20
2018-03-21T03:22:58.858Z,-4.35
2018-03-21T03:25:27.103Z,-4.56
2018-03-21T03:27:56.112Z,-4.58
2018-03-21T03:30:24.367Z,-4.62
2018-03-21T03:32:53.383Z,-4.70
2018-03-21T03:35:21.646Z,-4.75
2018-03-21T03:37:49.898Z,-4.84
2018-03-21T03:40:18.155Z,-4.98
2018-03-21T03:42:46.403Z,-4.95
2018-03-21T03:45:14.663Z,-4.98
2018-03-21T03:47:42.911Z,-5.00
2018-03-21T03:50:11.939Z,-5.05
2018-03-21T03:52:40.187Z,-5.06
2018-03-21T03:55:08.446Z,-5.13
2018-03-21T03:57:36.708Z,-5.26
2018-03-21T04:00:04.971Z,-5.22
2018-03-21T04:02:33.219Z,-5.15
2018-03-21T04:05:01.483Z,-5.26
2018-03-21T04:07:29.738Z,-5.20
2018-03-21T04:09:58.767Z,-5.23
2018-03-21T04:12:27.019Z,-5.19
2018-03-21T04:14:55.270Z,-5.20
2018-03-21T04:17:24.294Z,-5.21
2018-03-21T04:19:52.547Z,-5.19
2018-03-21T04:22:21.561Z,-5.19
2018-03-21T04:24:49.822Z,-5.21
2018-03-21T04:27:18.842Z,-5.34
2018-03-21T04:29:47.103Z,-5.45
2018-03-21T04:32:15.358Z,-5.48
2018-03-21T04:34:44.363Z,-5.52
2018-03-21T04:37:12.633Z,-5.53
2018-03-21T04:39:41.641Z,-5.67
2018-03-21T04:42:09.909Z,-5.48
2018-03-21T04:44:38.158Z,-5.46
2018-03-21T04:47:07.072Z,-5.29
2018-03-21T04:49:35.322Z,-5.13
2018-03-21T04:52:03.574Z,-4.60
2018-03-21T04:54:31.827Z,-4.51
2018-03-21T04:57:00.087Z,-4.48
2018-03-21T04:59:28.340Z,-4.51
2018-03-21T05:01:57.409Z,-4.46
2018-03-21T05:04:25.611Z,-4.33
2018-03-21T05:06:54.639Z,-4.43
2018-03-21T05:09:22.893Z,-4.40
2018-03-21T05:11:51.149Z,-4.48
2018-03-21T05:14:19.405Z,-4.48
2018-03-21T05:16:47.680Z,-4.52
2018-03-21T05:19:15.934Z,-4.45
2018-03-21T05:21:44.193Z,-4.48
2018-03-21T05:24:12.439Z,-4.55
2018-03-21T05:26:40.689Z,-4.49
2018-03-21T05:29:08.955Z,-4.45
2018-03-21T05:31:37.281Z,-4.46
2018-03-21T05:34:05.483Z,-4.42
2018-03-21T05:36:33.738Z,-4.37
2018-03-21T05:39:01.990Z,-4.33
2018-03-21T05:41:31.010Z,-4.37
2018-03-21T05:43:59.260Z,-4.37
2018-03-21T05:46:28.271Z,-4.34
2018-03-21T05:48:56.528Z,-4.27
2018-03-21T05:51:25.598Z,-4.28
2018-03-21T05:53:53.854Z,-4.23
2018-03-21T05:56:22.104Z,-4.27
2018-03-21T05:58:50.363Z,-4.23
2018-03-21T06:01:18.607Z,-4.18
2018-03-21T06:03:47.625Z,-4.14
2018-03-21T06:06:15.891Z,-4.14
2018-03-21T06:08:44.959Z,-4.15
2018-03-21T06:11:13.165Z,-4.10
2018-03-21T06:13:41.422Z,-4.06
2018-03-21T06:16:09.662Z,-4.04
2018-03-21T06:18:37.919Z,-4.02
2018-03-21T06:21:06.167Z,-4.01
2018-03-21T06:23:34.442Z,-4.02
2018-03-21T06:26:02.688Z,-3.95
2018-03-21T06:28:30.935Z,-3.94
2018-03-21T06:30:59.197Z,-3.95
2018-03-21T06:33:27.444Z,-3.86
2018-03-21T06:35:55.696Z,-3.75
2018-03-21T06:38:23.960Z,-3.91
2018-03-21T06:40:52.215Z,-3.95
2018-03-21T06:43:20.486Z,-3.89
2018-03-21T06:45:48.735Z,-3.89
2018-03-21T06:48:16.982Z,-3.85
2018-03-21T06:50:46.017Z,-3.81
2018-03-21T06:53:14.262Z,-3.61
2018-03-21T06:55:42.524Z,-3.51
2018-03-21T06:58:11.540Z,-3.33
2018-03-21T07:00:39.792Z,-3.15
2018-03-21T07:03:08.807Z,-3.12
2018-03-21T07:05:37.064Z,-3.07
2018-03-21T07:08:06.078Z,-3.02
2018-03-21T07:10:34.346Z,-2.85
2018-03-21T07:13:02.599Z,-2.85
2018-03-21T07:18:40.237Z,-2.67
2018-03-21T07:21:08.494Z,-2.65
2018-03-21T07:23:37.511Z,-2.54
2018-03-21T07:26:05.758Z,-2.48
2018-03-21T07:28:34.792Z,-2.31
2018-03-21T07:31:03.080Z,-2.38
2018-03-21T07:33:32.062Z,-2.21
2018-03-21T07:36:00.316Z,-2.37
2018-03-21T07:38:28.567Z,-2.26
2018-03-21T07:40:56.847Z,-2.21
2018-03-21T07:43:25.105Z,-2.16
2018-03-21T07:45:53.356Z,-2.01
2018-03-21T07:48:21.616Z,-1.95
2018-03-21T07:50:49.866Z,-1.94
2018-03-21T07:53:18.139Z,-1.86
2018-03-21T07:55:47.147Z,-1.73
2018-03-21T07:58:15.411Z,-1.65
2018-03-21T08:00:43.667Z,-1.66
2018-03-21T08:03:12.692Z,-1.61
2018-03-21T08:05:40.939Z,-1.46
2018-03-21T08:08:09.966Z,-1.56
2018-03-21T08:10:38.211Z,-1.39
2018-03-21T08:13:07.246Z,-1.31
2018-03-21T08:15:35.491Z,-1.17
2018-03-21T08:18:04.508Z,-0.79
2018-03-21T08:20:32.766Z,-0.87
2018-03-21T08:23:01.011Z,-0.72
2018-03-21T08:25:29.278Z,-0.80
2018-03-21T08:27:57.598Z,-0.77
2018-03-21T08:30:26.553Z,-0.75
2018-03-21T08:32:54.799Z,-0.86
2018-03-21T08:35:23.054Z,-0.60
2018-03-21T08:37:51.307Z,-0.70
2018-03-21T08:40:19.568Z,-0.53
2018-03-21T08:42:48.587Z,-0.54
2018-03-21T08:45:16.843Z,-0.41
2018-03-21T08:47:45.860Z,-0.34
2018-03-21T08:50:14.110Z,0.14
2018-03-21T08:52:43.127Z,-0.25
2018-03-21T08:55:11.406Z,0.06
2018-03-21T08:57:39.650Z,0.19
2018-03-21T09:00:08.665Z,0.24
2018-03-21T09:02:36.926Z,0.53
2018-03-21T09:05:05.933Z,0.55
2018-03-21T09:07:34.190Z,0.33
2018-03-21T09:10:03.209Z,0.29
2018-03-21T09:12:31.467Z,0.46
2018-03-21T09:14:59.716Z,0.83
2018-03-21T09:17:27.999Z,0.40
2018-03-21T09:19:57.012Z,0.43
2018-03-21T09:22:26.039Z,0.98
2018-03-21T09:24:54.293Z,1.05
2018-03-21T09:27:22.553Z,0.82
2018-03-21T09:29:51.573Z,0.92
2018-03-21T09:32:19.827Z,1.34
2018-03-21T09:34:48.078Z,1.60
2018-03-21T09:37:16.334Z,1.66
2018-03-21T09:39:44.576Z,1.85
2018-03-21T09:42:12.826Z,1.56
2018-03-21T09:44:41.079Z,1.30
2018-03-21T09:47:10.105Z,1.14
2018-03-21T09:49:38.387Z,1.31
2018-03-21T09:52:06.651Z,1.83
2018-03-21T09:54:40.407Z,2.44
2018-03-21T09:57:08.678Z,2.23
2018-03-21T09:59:36.931Z,2.56
2018-03-21T10:02:05.179Z,2.28
2018-03-21T10:04:33.433Z,2.31
2018-03-21T10:07:01.683Z,2.82
2018-03-21T10:09:29.936Z,2.60
2018-03-21T10:11:58.189Z,2.70
2018-03-21T10:14:26.438Z,2.67
2018-03-21T10:16:55.451Z,2.81
2018-03-21T10:19:23.706Z,3.38
2018-03-21T10:21:52.728Z,3.29
2018-03-21T10:24:20.989Z,3.06
2018-03-21T10:26:49.997Z,2.94
2018-03-21T10:29:18.294Z,3.18
2018-03-21T10:31:47.267Z,2.98
2018-03-21T10:34:15.532Z,2.85
2018-03-21T10:36:43.806Z,3.04
2018-03-21T10:39:12.812Z,3.19
2018-03-21T10:41:41.069Z,3.64
2018-03-21T10:44:10.113Z,3.43
2018-03-21T10:46:38.364Z,3.82
2018-03-21T10:49:06.611Z,2.85
2018-03-21T10:51:34.863Z,3.34
2018-03-21T10:54:03.129Z,3.22
2018-03-21T10:56:31.381Z,3.40
2018-03-21T10:58:59.635Z,3.76
2018-03-21T11:01:33.342Z,3.85
2018-03-21T11:04:01.617Z,3.26
2018-03-21T11:06:29.902Z,3.35
2018-03-21T11:08:58.869Z,4.63
2018-03-21T11:11:27.894Z,4.88
2018-03-21T11:13:56.164Z,5.69
2018-03-21T11:16:25.154Z,5.68
2018-03-21T11:18:53.396Z,6.19
2018-03-21T11:21:22.410Z,6.74
2018-03-21T11:23:50.651Z,6.26
2018-03-21T11:26:18.907Z,6.17
2018-03-21T11:28:47.148Z,6.69
2018-03-21T11:31:15.406Z,8.19
2018-03-21T11:33:43.641Z,6.68
2018-03-21T11:36:11.889Z,7.33
2018-03-21T11:38:40.127Z,6.87
2018-03-21T11:41:08.374Z,6.86
2018-03-21T11:43:36.610Z,7.19
2018-03-21T11:46:04.861Z,7.32
2018-03-21T11:48:33.094Z,6.15
2018-03-21T11:51:01.347Z,6.63
2018-03-21T11:53:29.589Z,7.66
2018-03-21T11:55:57.863Z,7.34
2018-03-21T11:58:26.100Z,8.13
2018-03-21T12:00:54.338Z,7.75
2018-03-21T12:03:22.587Z,7.52
2018-03-21T12:05:50.826Z,7.83
2018-03-21T12:08:19.084Z,7.02
2018-03-21T12:10:47.327Z,7.37
2018-03-21T12:13:15.574Z,7.46
2018-03-21T12:15:44.583Z,8.46
2018-03-21T12:18:12.845Z,7.97
2018-03-21T12:20:41.852Z,7.23
2018-03-21T12:23:10.104Z,7.10
2018-03-21T12:25:39.107Z,8.72
2018-03-21T12:28:08.120Z,9.68
2018-03-21T12:30:36.362Z,10.19
2018-03-21T12:33:05.394Z,9.23
2018-03-21T12:35:33.634Z,9.80
2018-03-21T12:38:02.648Z,9.24
2018-03-21T12:40:30.902Z,10.07
2018-03-21T12:42:59.911Z,9.88
2018-03-21T12:45:28.934Z,10.10
2018-03-21T12:47:57.176Z,10.65
2018-03-21T12:50:26.201Z,10.40
2018-03-21T12:52:54.448Z,10.85
2018-03-21T12:55:23.468Z,9.15
2018-03-21T12:57:51.715Z,9.34
2018-03-21T13:00:20.728Z,9.57
2018-03-21T13:02:48.971Z,9.06
2018-03-21T13:05:17.983Z,7.49
2018-03-21T13:07:46.274Z,7.39
2018-03-21T13:10:14.484Z,7.29
2018-03-21T13:12:42.723Z,7.66
2018-03-21T13:15:10.979Z,7.06
2018-03-21T13:17:39.983Z,7.69
2018-03-21T13:20:08.244Z,7.93
2018-03-21T13:22:37.261Z,10.40
2018-03-21T13:25:05.508Z,9.31
2018-03-21T13:27:34.515Z,10.41
2018-03-21T13:30:02.764Z,9.36
2018-03-21T13:32:31.773Z,8.86
2018-03-21T13:35:00.833Z,8.51
2018-03-21T13:37:29.036Z,8.89
2018-03-21T13:39:58.051Z,10.57
2018-03-21T13:42:26.306Z,9.37
2018-03-21T13:44:55.316Z,9.70
2018-03-21T13:47:23.563Z,7.75
2018-03-21T13:49:51.799Z,9.00
2018-03-21T13:52:20.049Z,8.83
2018-03-21T13:54:48.287Z,9.64
2018-03-21T13:57:17.303Z,9.30
2018-03-21T13:59:45.542Z,9.27
2018-03-21T14:02:13.795Z,9.81
2018-03-21T14:04:42.043Z,8.92
2018-03-21T14:07:10.301Z,9.97
2018-03-21T14:09:39.311Z,9.64
2018-03-21T14:12:07.555Z,9.56
2018-03-21T14:14:36.562Z,8.07
2018-03-21T14:17:04.878Z,10.61
2018-03-21T14:19:33.834Z,12.16
2018-03-21T14:22:02.106Z,11.57
2018-03-21T14:24:31.123Z,8.71
2018-03-21T14:26:59.371Z,11.05
2018-03-21T14:29:28.394Z,6.20
2018-03-21T14:31:56.630Z,10.37
2018-03-21T14:34:25.648Z,9.95
2018-03-21T14:36:53.898Z,10.66
2018-03-21T14:39:22.923Z,12.03
2018-03-21T14:41:51.179Z,10.74
2018-03-21T14:44:20.203Z,10.64
2018-03-21T14:46:48.455Z,10.33
2018-03-21T14:49:16.714Z,11.95
2018-03-21T14:51:45.727Z,10.67
2018-03-21T14:54:13.985Z,11.45
2018-03-21T14:56:42.982Z,9.04
2018-03-21T14:59:12.000Z,8.50
2018-03-21T15:01:40.246Z,8.65
2018-03-21T15:04:09.262Z,8.92
2018-03-21T15:06:37.509Z,10.14
2018-03-21T15:09:06.522Z,10.90
2018-03-21T15:11:34.774Z,9.06
2018-03-21T15:14:03.019Z,8.93
2018-03-21T15:16:31.270Z,10.03
2018-03-21T15:18:59.545Z,11.51
2018-03-21T15:21:27.798Z,11.74
2018-03-21T15:23:56.807Z,11.60
2018-03-21T15:26:25.068Z,11.35
2018-03-21T15:28:53.336Z,12.14
2018-03-21T15:31:22.355Z,11.33
2018-03-21T15:33:50.613Z,10.78
2018-03-21T15:36:18.868Z,12.08
2018-03-21T15:38:47.889Z,11.54
2018-03-21T15:41:16.142Z,12.05
2018-03-21T15:43:45.158Z,11.79
2018-03-21T15:46:13.420Z,9.87
2018-03-21T15:48:41.672Z,11.23
2018-03-21T15:51:09.988Z,11.31
2018-03-21T15:53:38.182Z,8.95
2018-03-21T15:56:06.426Z,9.12
2018-03-21T15:58:34.671Z,9.67
2018-03-21T16:01:02.926Z,8.82
2018-03-21T16:03:31.941Z,9.00
2018-03-21T16:06:00.591Z,6.73
2018-03-21T16:08:28.804Z,8.43
2018-03-21T16:10:57.051Z,7.58
2018-03-21T16:13:25.294Z,7.17
2018-03-21T16:15:53.562Z,7.55
2018-03-21T16:18:21.805Z,7.59
2018-03-21T16:20:50.046Z,7.83
2018-03-21T16:23:18.307Z,6.82
2018-03-21T16:25:46.550Z,6.74
2018-03-21T16:28:14.825Z,6.19
2018-03-21T16:30:43.814Z,5.91
2018-03-21T16:33:12.832Z,5.88
2018-03-21T16:35:41.078Z,5.39
2018-03-21T16:38:10.103Z,5.22
2018-03-21T16:40:38.350Z,5.05
2018-03-21T16:43:06.603Z,4.79
2018-03-21T16:45:34.842Z,4.50
2018-03-21T16:48:03.097Z,4.40
2018-03-21T16:50:31.344Z,4.04
2018-03-21T16:53:00.360Z,4.07
2018-03-21T16:55:28.599Z,4.10
2018-03-21T16:57:56.848Z,3.81
2018-03-21T17:00:25.094Z,3.64
2018-03-21T17:02:53.350Z,3.55
2018-03-21T17:05:21.607Z,3.53
2018-03-21T17:07:50.624Z,3.43
2018-03-21T17:10:18.950Z,3.46
2018-03-21T17:12:47.142Z,3.28
2018-03-21T17:15:15.408Z,3.09
2018-03-21T17:17:43.659Z,3.14
2018-03-21T17:20:11.922Z,3.03
2018-03-21T17:22:40.188Z,3.06
2018-03-21T17:25:08.434Z,2.73
2018-03-21T17:27:37.446Z,2.62
2018-03-21T17:30:05.703Z,2.48
2018-03-21T17:32:34.727Z,2.35
2018-03-21T17:35:02.978Z,2.50
2018-03-21T17:37:31.227Z,2.32
2018-03-21T17:39:59.479Z,2.23
2018-03-21T17:42:27.729Z,2.21
2018-03-21T17:44:55.979Z,2.27
2018-03-21T17:47:24.994Z,2.22
2018-03-21T17:49:53.259Z,2.03
2018-03-21T17:52:21.503Z,1.95
2018-03-21T17:54:49.748Z,1.95
2018-03-21T17:57:18.012Z,1.84
2018-03-21T17:59:46.254Z,1.66
2018-03-21T18:02:14.514Z,1.69
2018-03-21T18:04:43.531Z,1.51
2018-03-21T18:07:11.783Z,1.60
2018-03-21T18:09:40.791Z,1.63
2018-03-21T18:12:09.042Z,1.57
2018-03-21T18:14:38.055Z,1.50
2018-03-21T18:17:06.311Z,1.57
2018-03-21T18:19:35.326Z,1.49
2018-03-21T18:22:03.590Z,1.43
2018-03-21T18:24:32.607Z,1.38
2018-03-21T18:27:00.860Z,1.30
2018-03-21T18:29:29.867Z,1.17
2018-03-21T18:31:58.119Z,1.13
2018-03-21T18:34:27.131Z,1.02
2018-03-21T18:36:56.154Z,0.98
2018-03-21T18:39:24.396Z,0.99
2018-03-21T18:41:53.402Z,0.92
2018-03-21T18:44:21.659Z,1.02
2018-03-21T18:46:50.667Z,0.96
2018-03-21T18:49:18.923Z,0.97
2018-03-21T18:51:47.929Z,1.05
2018-03-21T18:54:16.186Z,1.05
2018-03-21T18:56:45.198Z,1.07
2018-03-21T18:59:13.454Z,1.10
2018-03-21T19:01:42.467Z,1.01
2018-03-21T19:04:11.489Z,0.94
2018-03-21T19:06:39.726Z,1.04
2018-03-21T19:09:08.744Z,0.98
2018-03-21T19:11:36.987Z,1.14
2018-03-21T19:14:05.239Z,0.98
2018-03-21T19:16:33.483Z,1.08
2018-03-21T19:19:01.732Z,1.01
2018-03-21T19:21:30.743Z,0.96
2018-03-21T19:23:58.994Z,1.13
2018-03-21T19:26:28.002Z,1.10
2018-03-21T19:28:56.262Z,1.16
2018-03-21T19:31:25.269Z,1.08
2018-03-21T19:33:53.518Z,1.14
2018-03-21T19:36:22.543Z,0.97
2018-03-21T19:38:50.786Z,0.94
2018-03-21T19:41:19.803Z,0.86
2018-03-21T19:43:48.043Z,0.94
2018-03-21T19:46:16.298Z,0.81
2018-03-21T19:48:44.544Z,0.87
2018-03-21T19:51:12.802Z,0.88
2018-03-21T19:53:41.044Z,0.84
2018-03-21T19:56:09.305Z,0.77
2018-03-21T19:58:37.548Z,0.80
2018-03-21T20:01:05.802Z,0.78
2018-03-21T20:03:34.046Z,0.76
2018-03-21T20:06:02.307Z,0.76
2018-03-21T20:08:30.548Z,0.86
2018-03-21T20:10:58.801Z,0.85
2018-03-21T20:13:27.805Z,0.87
2018-03-21T20:15:56.054Z,0.82
2018-03-21T20:18:25.067Z,0.87
2018-03-21T20:20:53.511Z,0.77
2018-03-21T20:23:21.755Z,0.66
2018-03-21T20:25:50.100Z,0.80
2018-03-21T20:28:18.347Z,0.77
2018-03-21T20:30:46.618Z,0.74
2018-03-21T20:33:14.863Z,0.87
2018-03-21T20:35:43.108Z,0.72
2018-03-21T20:38:11.364Z,0.77
2018-03-21T20:40:40.428Z,0.85
2018-03-21T20:43:08.690Z,0.75
2018-03-21T20:45:36.937Z,0.73
2018-03-21T20:48:05.195Z,0.84
2018-03-21T20:50:33.438Z,0.83
2018-03-21T20:53:01.707Z,0.76
2018-03-21T20:55:29.959Z,0.77
2018-03-21T20:57:58.217Z,0.66
2018-03-21T21:00:26.460Z,0.60
2018-03-21T21:02:55.480Z,0.59
2018-03-21T21:05:23.725Z,0.61
2018-03-21T21:07:52.744Z,0.53
2018-03-21T21:10:20.986Z,0.55
2018-03-21T21:12:49.239Z,0.53
2018-03-21T21:15:17.479Z,0.54
2018-03-21T21:17:45.734Z,0.59
2018-03-21T21:20:14.734Z,0.58
2018-03-21T21:22:42.986Z,0.55
2018-03-21T21:25:12.001Z,0.54
2018-03-21T21:27:40.246Z,0.58
2018-03-21T21:30:09.260Z,0.49
2018-03-21T21:32:38.279Z,0.43
2018-03-21T21:35:06.528Z,0.50
2018-03-21T21:37:35.547Z,0.56
2018-03-21T21:40:03.807Z,0.49
2018-03-21T21:42:32.050Z,0.47
2018-03-21T21:45:00.324Z,0.43
2018-03-21T21:47:28.563Z,0.37
2018-03-21T21:49:56.803Z,0.51
2018-03-21T21:52:25.055Z,0.40
2018-03-21T21:54:53.299Z,0.48
2018-03-21T21:57:21.542Z,0.43
2018-03-21T21:59:49.801Z,0.37
2018-03-21T22:02:18.810Z,0.28
2018-03-21T22:04:47.055Z,0.30
2018-03-21T22:07:16.059Z,0.22
2018-03-21T22:09:45.079Z,0.33
2018-03-21T22:12:18.782Z,0.29
2018-03-21T22:14:47.053Z,0.24
2018-03-21T22:17:16.038Z,0.25
2018-03-21T22:19:44.299Z,0.15
2018-03-21T22:22:13.307Z,0.15
2018-03-21T22:24:41.554Z,0.05
2018-03-21T22:27:10.577Z,0.03
2018-03-21T22:29:38.826Z,0.04
2018-03-21T22:32:07.846Z,-0.03
2018-03-21T22:34:36.110Z,-0.07
2018-03-21T22:37:05.127Z,-0.12
2018-03-21T22:39:33.377Z,-0.12
2018-03-21T22:42:01.634Z,-0.13
2018-03-21T22:44:30.771Z,-0.12
2018-03-21T22:46:59.050Z,-0.13
2018-03-21T22:49:28.050Z,-0.15
2018-03-21T22:51:56.322Z,-0.07
2018-03-21T22:54:24.589Z,-0.07
2018-03-21T22:56:52.826Z,0.03
2018-03-21T22:59:21.849Z,-0.08
2018-03-21T23:01:50.101Z,-0.05
2018-03-21T23:04:19.130Z,0.02
2018-03-21T23:06:47.378Z,-0.02
2018-03-21T23:09:16.404Z,-0.07
2018-03-21T23:11:44.652Z,-0.06
2018-03-21T23:14:13.681Z,-0.05
2018-03-21T23:16:41.927Z,-0.05
2018-03-21T23:19:10.179Z,-0.03
2018-03-21T23:21:39.198Z,0.00
2018-03-21T23:24:07.446Z,0.01
2018-03-21T23:26:36.462Z,0.05
2018-03-21T23:29:04.738Z,0.11
2018-03-21T23:31:32.987Z,0.09
2018-03-21T23:34:01.227Z,0.12
2018-03-21T23:36:29.488Z,0.02
2018-03-21T23:38:57.739Z,-0.03
2018-03-21T23:41:26.004Z,-0.04
2018-03-21T23:43:55.008Z,0.03
2018-03-21T23:46:23.264Z,0.19
2018-03-21T23:48:52.271Z,0.14
2018-03-21T23:51:21.291Z,0.13
2018-03-21T23:53:49.542Z,0.04
2018-03-21T23:56:17.798Z,0.02
2018-03-21T23:58:46.823Z,0.04
